sensor_id;sensor_type;location;lat;lon;timestamp;P1;durP1;ratioP1;P2;durP2;ratioP2
44987;SDS011;35735;52.226;21.254;2024-03-07T00:01:25;20.60;;;13.83;;
44987;SDS011;35735;52.226;21.254;2024-03-07T00:07:07;21.67;;;14.73;;
44987;SDS011;35735;52.226;21.254;2024-03-07T00:12:49;19.77;;;13.68;;
44987;SDS011;35735;52.226;21.254;2024-03-07T00:18:31;23.95;;;15.57;;
44987;SDS011;35735;52.226;21.254;2024-03-07T00:24:13;21.25;;;14.52;;
44987;SDS011;35735;52.226;21.254;2024-03-07T00:29:55;24.12;;;16.52;;
44987;SDS011;35735;52.226;21.254;2024-03-07T00:35:37;22.00;;;15.57;;
44987;SDS011;35735;52.226;21.254;2024-03-07T00:41:22;23.67;;;15.33;;
44987;SDS011;35735;52.226;21.254;2024-03-07T00:47:04;22.90;;;14.75;;
44987;SDS011;35735;52.226;21.254;2024-03-07T00:52:45;22.62;;;15.07;;
44987;SDS011;35735;52.226;21.254;2024-03-07T00:58:27;20.75;;;14.65;;
44987;SDS011;35735;52.226;21.254;2024-03-07T01:04:09;21.60;;;15.30;;
44987;SDS011;35735;52.226;21.254;2024-03-07T01:09:51;24.83;;;15.10;;
44987;SDS011;35735;52.226;21.254;2024-03-07T01:15:33;24.05;;;14.90;;
44987;SDS011;35735;52.226;21.254;2024-03-07T01:21:18;23.15;;;15.38;;
44987;SDS011;35735;52.226;21.254;2024-03-07T01:27:00;23.02;;;15.60;;
44987;SDS011;35735;52.226;21.254;2024-03-07T01:32:42;24.37;;;14.93;;
44987;SDS011;35735;52.226;21.254;2024-03-07T01:38:23;21.77;;;15.07;;
44987;SDS011;35735;52.226;21.254;2024-03-07T01:44:05;24.77;;;15.15;;
44987;SDS011;35735;52.226;21.254;2024-03-07T01:49:47;22.27;;;14.77;;
44987;SDS011;35735;52.226;21.254;2024-03-07T01:55:29;23.55;;;14.63;;
44987;SDS011;35735;52.226;21.254;2024-03-07T02:01:11;24.52;;;14.87;;
44987;SDS011;35735;52.226;21.254;2024-03-07T02:06:53;26.42;;;16.00;;
44987;SDS011;35735;52.226;21.254;2024-03-07T02:12:35;27.37;;;16.00;;
44987;SDS011;35735;52.226;21.254;2024-03-07T02:18:17;22.55;;;15.45;;
44987;SDS011;35735;52.226;21.254;2024-03-07T02:24:01;23.08;;;14.48;;
44987;SDS011;35735;52.226;21.254;2024-03-07T02:29:43;22.02;;;13.85;;
44987;SDS011;35735;52.226;21.254;2024-03-07T02:35:26;23.12;;;14.68;;
44987;SDS011;35735;52.226;21.254;2024-03-07T02:41:08;22.93;;;14.80;;
44987;SDS011;35735;52.226;21.254;2024-03-07T02:46:50;23.50;;;14.80;;
44987;SDS011;35735;52.226;21.254;2024-03-07T02:52:32;22.90;;;14.18;;
44987;SDS011;35735;52.226;21.254;2024-03-07T02:58:14;25.97;;;15.70;;
44987;SDS011;35735;52.226;21.254;2024-03-07T03:03:56;21.75;;;14.48;;
44987;SDS011;35735;52.226;21.254;2024-03-07T03:09:37;27.20;;;15.63;;
44987;SDS011;35735;52.226;21.254;2024-03-07T03:15:19;25.23;;;15.70;;
44987;SDS011;35735;52.226;21.254;2024-03-07T03:21:02;21.65;;;14.05;;
44987;SDS011;35735;52.226;21.254;2024-03-07T03:26:44;23.55;;;14.02;;
44987;SDS011;35735;52.226;21.254;2024-03-07T03:32:26;22.03;;;13.53;;
44987;SDS011;35735;52.226;21.254;2024-03-07T03:38:08;23.52;;;14.35;;
44987;SDS011;35735;52.226;21.254;2024-03-07T03:43:50;22.40;;;14.45;;
44987;SDS011;35735;52.226;21.254;2024-03-07T03:49:34;22.92;;;14.18;;
44987;SDS011;35735;52.226;21.254;2024-03-07T03:55:16;24.00;;;15.02;;
44987;SDS011;35735;52.226;21.254;2024-03-07T04:00:58;26.35;;;15.80;;
44987;SDS011;35735;52.226;21.254;2024-03-07T04:06:39;24.00;;;14.53;;
44987;SDS011;35735;52.226;21.254;2024-03-07T04:12:21;24.23;;;15.10;;
44987;SDS011;35735;52.226;21.254;2024-03-07T04:18:03;25.30;;;15.77;;
44987;SDS011;35735;52.226;21.254;2024-03-07T04:23:45;26.70;;;15.65;;
44987;SDS011;35735;52.226;21.254;2024-03-07T04:29:27;24.90;;;15.65;;
44987;SDS011;35735;52.226;21.254;2024-03-07T04:35:09;25.80;;;15.32;;
44987;SDS011;35735;52.226;21.254;2024-03-07T04:40:57;27.20;;;16.73;;
44987;SDS011;35735;52.226;21.254;2024-03-07T04:46:38;26.12;;;15.73;;
44987;SDS011;35735;52.226;21.254;2024-03-07T04:52:20;25.33;;;15.43;;
44987;SDS011;35735;52.226;21.254;2024-03-07T04:58:03;28.75;;;16.40;;
44987;SDS011;35735;52.226;21.254;2024-03-07T05:03:45;25.62;;;15.30;;
44987;SDS011;35735;52.226;21.254;2024-03-07T05:09:30;25.70;;;15.65;;
44987;SDS011;35735;52.226;21.254;2024-03-07T05:15:11;23.87;;;15.33;;
44987;SDS011;35735;52.226;21.254;2024-03-07T05:20:53;26.77;;;16.03;;
44987;SDS011;35735;52.226;21.254;2024-03-07T05:26:35;26.37;;;15.63;;
44987;SDS011;35735;52.226;21.254;2024-03-07T05:32:21;27.57;;;15.53;;
44987;SDS011;35735;52.226;21.254;2024-03-07T05:38:04;24.65;;;14.77;;
44987;SDS011;35735;52.226;21.254;2024-03-07T05:43:46;23.65;;;15.45;;
44987;SDS011;35735;52.226;21.254;2024-03-07T05:49:28;34.43;;;18.83;;
44987;SDS011;35735;52.226;21.254;2024-03-07T05:55:10;32.17;;;17.27;;
44987;SDS011;35735;52.226;21.254;2024-03-07T06:00:52;27.13;;;16.40;;
44987;SDS011;35735;52.226;21.254;2024-03-07T06:06:34;28.95;;;16.73;;
44987;SDS011;35735;52.226;21.254;2024-03-07T06:12:16;27.47;;;15.77;;
44987;SDS011;35735;52.226;21.254;2024-03-07T06:17:58;22.35;;;13.93;;
44987;SDS011;35735;52.226;21.254;2024-03-07T06:23:40;24.02;;;12.90;;
44987;SDS011;35735;52.226;21.254;2024-03-07T06:29:22;24.75;;;14.23;;
44987;SDS011;35735;52.226;21.254;2024-03-07T06:35:04;20.80;;;13.18;;
44987;SDS011;35735;52.226;21.254;2024-03-07T06:40:46;20.27;;;12.50;;
44987;SDS011;35735;52.226;21.254;2024-03-07T06:46:28;21.75;;;13.23;;
44987;SDS011;35735;52.226;21.254;2024-03-07T06:52:10;17.93;;;12.20;;
44987;SDS011;35735;52.226;21.254;2024-03-07T06:57:52;20.30;;;12.32;;
44987;SDS011;35735;52.226;21.254;2024-03-07T07:03:34;19.92;;;12.15;;
44987;SDS011;35735;52.226;21.254;2024-03-07T07:09:16;17.65;;;11.50;;
44987;SDS011;35735;52.226;21.254;2024-03-07T07:14:58;19.98;;;11.30;;
44987;SDS011;35735;52.226;21.254;2024-03-07T07:20:40;18.13;;;11.83;;
44987;SDS011;35735;52.226;21.254;2024-03-07T07:26:22;23.13;;;11.53;;
44987;SDS011;35735;52.226;21.254;2024-03-07T07:32:04;17.34;;;11.34;;
44987;SDS011;35735;52.226;21.254;2024-03-07T07:37:47;17.27;;;10.50;;
44987;SDS011;35735;52.226;21.254;2024-03-07T07:43:33;16.80;;;11.23;;
44987;SDS011;35735;52.226;21.254;2024-03-07T07:49:15;16.20;;;10.80;;
44987;SDS011;35735;52.226;21.254;2024-03-07T07:54:57;15.98;;;10.18;;
44987;SDS011;35735;52.226;21.254;2024-03-07T08:00:39;15.98;;;9.93;;
44987;SDS011;35735;52.226;21.254;2024-03-07T08:06:20;19.37;;;9.70;;
44987;SDS011;35735;52.226;21.254;2024-03-07T08:12:02;14.23;;;8.07;;
44987;SDS011;35735;52.226;21.254;2024-03-07T08:17:45;10.30;;;7.70;;
44987;SDS011;35735;52.226;21.254;2024-03-07T08:23:28;12.40;;;7.82;;
44987;SDS011;35735;52.226;21.254;2024-03-07T08:29:10;11.30;;;7.37;;
44987;SDS011;35735;52.226;21.254;2024-03-07T08:34:52;11.35;;;7.30;;
44987;SDS011;35735;52.226;21.254;2024-03-07T08:40:34;8.97;;;6.47;;
44987;SDS011;35735;52.226;21.254;2024-03-07T08:46:15;10.03;;;6.57;;
44987;SDS011;35735;52.226;21.254;2024-03-07T08:51:57;12.75;;;6.40;;
44987;SDS011;35735;52.226;21.254;2024-03-07T08:57:40;10.93;;;6.37;;
44987;SDS011;35735;52.226;21.254;2024-03-07T09:03:22;9.57;;;6.20;;
44987;SDS011;35735;52.226;21.254;2024-03-07T09:09:04;10.60;;;6.80;;
44987;SDS011;35735;52.226;21.254;2024-03-07T09:14:46;11.57;;;6.47;;
44987;SDS011;35735;52.226;21.254;2024-03-07T09:20:28;9.00;;;6.22;;
44987;SDS011;35735;52.226;21.254;2024-03-07T09:26:10;7.80;;;5.95;;
44987;SDS011;35735;52.226;21.254;2024-03-07T09:31:52;9.82;;;6.00;;
44987;SDS011;35735;52.226;21.254;2024-03-07T09:37:33;7.40;;;6.25;;
44987;SDS011;35735;52.226;21.254;2024-03-07T09:43:15;9.80;;;6.27;;
44987;SDS011;35735;52.226;21.254;2024-03-07T09:48:59;9.80;;;5.72;;
44987;SDS011;35735;52.226;21.254;2024-03-07T09:54:42;8.00;;;5.90;;
44987;SDS011;35735;52.226;21.254;2024-03-07T10:01:20;10.77;;;5.65;;
44987;SDS011;35735;52.226;21.254;2024-03-07T10:06:41;8.13;;;5.77;;
44987;SDS011;35735;52.226;21.254;2024-03-07T10:12:02;9.23;;;6.28;;
44987;SDS011;35735;52.226;21.254;2024-03-07T10:17:24;8.47;;;5.83;;
44987;SDS011;35735;52.226;21.254;2024-03-07T10:22:45;10.25;;;6.32;;
44987;SDS011;35735;52.226;21.254;2024-03-07T10:28:06;7.78;;;5.35;;
44987;SDS011;35735;52.226;21.254;2024-03-07T10:33:29;8.13;;;6.30;;
44987;SDS011;35735;52.226;21.254;2024-03-07T10:38:50;8.95;;;5.87;;
44987;SDS011;35735;52.226;21.254;2024-03-07T10:44:11;7.70;;;5.80;;
44987;SDS011;35735;52.226;21.254;2024-03-07T11:01:43;8.55;;;6.07;;
44987;SDS011;35735;52.226;21.254;2024-03-07T11:07:13;8.43;;;6.40;;
44987;SDS011;35735;52.226;21.254;2024-03-07T11:12:34;11.93;;;6.62;;
44987;SDS011;35735;52.226;21.254;2024-03-07T11:17:56;8.82;;;6.15;;
44987;SDS011;35735;52.226;21.254;2024-03-07T11:28:52;9.73;;;6.90;;
44987;SDS011;35735;52.226;21.254;2024-03-07T11:39:43;9.35;;;6.10;;
44987;SDS011;35735;52.226;21.254;2024-03-07T11:45:05;8.70;;;5.95;;
44987;SDS011;35735;52.226;21.254;2024-03-07T11:50:26;8.73;;;6.30;;
44987;SDS011;35735;52.226;21.254;2024-03-07T11:55:47;9.15;;;6.95;;
44987;SDS011;35735;52.226;21.254;2024-03-07T12:01:08;10.48;;;6.90;;
44987;SDS011;35735;52.226;21.254;2024-03-07T12:06:29;10.25;;;7.32;;
44987;SDS011;35735;52.226;21.254;2024-03-07T12:11:50;8.43;;;6.43;;
44987;SDS011;35735;52.226;21.254;2024-03-07T12:17:11;10.50;;;6.80;;
44987;SDS011;35735;52.226;21.254;2024-03-07T12:22:32;8.15;;;6.12;;
44987;SDS011;35735;52.226;21.254;2024-03-07T12:28:11;8.30;;;6.45;;
44987;SDS011;35735;52.226;21.254;2024-03-07T12:33:34;9.70;;;6.90;;
44987;SDS011;35735;52.226;21.254;2024-03-07T12:38:55;9.48;;;6.00;;
44987;SDS011;35735;52.226;21.254;2024-03-07T12:44:15;9.15;;;6.65;;
44987;SDS011;35735;52.226;21.254;2024-03-07T12:49:36;9.73;;;6.57;;
44987;SDS011;35735;52.226;21.254;2024-03-07T12:54:57;9.75;;;6.72;;
44987;SDS011;35735;52.226;21.254;2024-03-07T13:00:18;8.67;;;6.77;;
44987;SDS011;35735;52.226;21.254;2024-03-07T13:05:39;9.40;;;7.00;;
44987;SDS011;35735;52.226;21.254;2024-03-07T13:11:00;11.57;;;7.72;;
44987;SDS011;35735;52.226;21.254;2024-03-07T13:16:21;24.98;;;20.35;;
44987;SDS011;35735;52.226;21.254;2024-03-07T13:21:42;15.85;;;7.20;;
44987;SDS011;35735;52.226;21.254;2024-03-07T13:27:03;10.10;;;7.00;;
44987;SDS011;35735;52.226;21.254;2024-03-07T13:32:24;9.80;;;6.60;;
44987;SDS011;35735;52.226;21.254;2024-03-07T13:37:46;13.13;;;6.75;;
44987;SDS011;35735;52.226;21.254;2024-03-07T13:43:10;12.53;;;7.50;;
44987;SDS011;35735;52.226;21.254;2024-03-07T13:48:31;10.10;;;6.60;;
44987;SDS011;35735;52.226;21.254;2024-03-07T13:53:52;10.75;;;6.25;;
44987;SDS011;35735;52.226;21.254;2024-03-07T14:40:21;10.70;;;7.10;;
44987;SDS011;35735;52.226;21.254;2024-03-07T14:45:43;11.10;;;7.15;;
44987;SDS011;35735;52.226;21.254;2024-03-07T14:51:04;9.70;;;7.13;;
44987;SDS011;35735;52.226;21.254;2024-03-07T14:56:27;9.65;;;6.53;;
44987;SDS011;35735;52.226;21.254;2024-03-07T15:01:48;13.40;;;7.50;;
44987;SDS011;35735;52.226;21.254;2024-03-07T15:07:09;11.83;;;8.87;;
44987;SDS011;35735;52.226;21.254;2024-03-07T15:12:30;9.35;;;7.03;;
44987;SDS011;35735;52.226;21.254;2024-03-07T15:17:51;11.23;;;6.80;;
44987;SDS011;35735;52.226;21.254;2024-03-07T15:23:12;13.93;;;8.60;;
44987;SDS011;35735;52.226;21.254;2024-03-07T15:28:33;11.73;;;8.30;;
44987;SDS011;35735;52.226;21.254;2024-03-07T15:33:54;10.30;;;6.78;;
44987;SDS011;35735;52.226;21.254;2024-03-07T15:39:15;11.75;;;7.37;;
44987;SDS011;35735;52.226;21.254;2024-03-07T15:44:35;12.48;;;7.47;;
44987;SDS011;35735;52.226;21.254;2024-03-07T15:49:56;12.52;;;8.10;;
44987;SDS011;35735;52.226;21.254;2024-03-07T15:55:17;10.90;;;7.23;;
44987;SDS011;35735;52.226;21.254;2024-03-07T16:00:39;13.65;;;8.25;;
44987;SDS011;35735;52.226;21.254;2024-03-07T16:06:00;11.18;;;7.72;;
44987;SDS011;35735;52.226;21.254;2024-03-07T16:11:21;11.90;;;8.23;;
44987;SDS011;35735;52.226;21.254;2024-03-07T16:16:42;12.93;;;8.50;;
44987;SDS011;35735;52.226;21.254;2024-03-07T16:22:03;23.00;;;10.70;;
44987;SDS011;35735;52.226;21.254;2024-03-07T16:27:24;28.98;;;9.73;;
44987;SDS011;35735;52.226;21.254;2024-03-07T16:32:45;24.77;;;10.57;;
44987;SDS011;35735;52.226;21.254;2024-03-07T16:38:07;14.80;;;8.90;;
44987;SDS011;35735;52.226;21.254;2024-03-07T16:43:28;14.05;;;9.70;;
44987;SDS011;35735;52.226;21.254;2024-03-07T16:48:49;16.92;;;10.40;;
44987;SDS011;35735;52.226;21.254;2024-03-07T16:54:10;19.67;;;13.88;;
44987;SDS011;35735;52.226;21.254;2024-03-07T16:59:30;34.78;;;19.27;;
44987;SDS011;35735;52.226;21.254;2024-03-07T17:04:51;37.22;;;23.38;;
44987;SDS011;35735;52.226;21.254;2024-03-07T17:10:12;44.07;;;24.17;;
44987;SDS011;35735;52.226;21.254;2024-03-07T17:15:33;44.22;;;23.55;;
44987;SDS011;35735;52.226;21.254;2024-03-07T17:20:54;40.03;;;21.58;;
44987;SDS011;35735;52.226;21.254;2024-03-07T17:26:15;41.00;;;20.27;;
44987;SDS011;35735;52.226;21.254;2024-03-07T17:31:36;45.55;;;21.08;;
44987;SDS011;35735;52.226;21.254;2024-03-07T17:36:57;51.70;;;26.30;;
44987;SDS011;35735;52.226;21.254;2024-03-07T17:42:18;58.67;;;29.53;;
44987;SDS011;35735;52.226;21.254;2024-03-07T17:47:38;80.95;;;37.10;;
44987;SDS011;35735;52.226;21.254;2024-03-07T17:53:00;71.67;;;35.43;;
44987;SDS011;35735;52.226;21.254;2024-03-07T17:58:23;44.95;;;24.85;;
44987;SDS011;35735;52.226;21.254;2024-03-07T18:03:44;32.10;;;17.15;;
44987;SDS011;35735;52.226;21.254;2024-03-07T18:09:05;34.72;;;18.65;;
44987;SDS011;35735;52.226;21.254;2024-03-07T18:14:25;44.85;;;25.33;;
44987;SDS011;35735;52.226;21.254;2024-03-07T18:19:46;52.80;;;27.62;;
44987;SDS011;35735;52.226;21.254;2024-03-07T18:25:07;47.93;;;29.57;;
44987;SDS011;35735;52.226;21.254;2024-03-07T18:30:28;65.30;;;35.30;;
44987;SDS011;35735;52.226;21.254;2024-03-07T18:35:50;71.35;;;39.28;;
44987;SDS011;35735;52.226;21.254;2024-03-07T18:41:10;69.80;;;38.57;;
44987;SDS011;35735;52.226;21.254;2024-03-07T18:46:31;66.85;;;35.70;;
44987;SDS011;35735;52.226;21.254;2024-03-07T18:51:52;75.78;;;37.03;;
44987;SDS011;35735;52.226;21.254;2024-03-07T18:57:13;77.47;;;39.00;;
44987;SDS011;35735;52.226;21.254;2024-03-07T19:02:34;93.68;;;44.70;;
44987;SDS011;35735;52.226;21.254;2024-03-07T19:07:55;88.23;;;44.30;;
44987;SDS011;35735;52.226;21.254;2024-03-07T19:13:16;79.55;;;41.83;;
44987;SDS011;35735;52.226;21.254;2024-03-07T19:18:38;78.65;;;40.70;;
44987;SDS011;35735;52.226;21.254;2024-03-07T19:23:59;86.53;;;40.67;;
44987;SDS011;35735;52.226;21.254;2024-03-07T19:29:20;88.95;;;49.45;;
44987;SDS011;35735;52.226;21.254;2024-03-07T19:34:40;98.07;;;50.78;;
44987;SDS011;35735;52.226;21.254;2024-03-07T19:40:01;107.63;;;51.73;;
44987;SDS011;35735;52.226;21.254;2024-03-07T19:45:22;91.40;;;50.90;;
44987;SDS011;35735;52.226;21.254;2024-03-07T19:50:43;131.40;;;58.15;;
44987;SDS011;35735;52.226;21.254;2024-03-07T19:56:04;145.32;;;60.40;;
44987;SDS011;35735;52.226;21.254;2024-03-07T20:01:26;135.02;;;59.40;;
44987;SDS011;35735;52.226;21.254;2024-03-07T20:06:47;153.83;;;61.60;;
44987;SDS011;35735;52.226;21.254;2024-03-07T20:12:07;169.77;;;70.30;;
44987;SDS011;35735;52.226;21.254;2024-03-07T20:17:29;152.93;;;67.03;;
44987;SDS011;35735;52.226;21.254;2024-03-07T20:22:50;160.77;;;66.15;;
44987;SDS011;35735;52.226;21.254;2024-03-07T20:28:11;134.35;;;59.83;;
44987;SDS011;35735;52.226;21.254;2024-03-07T20:33:32;145.65;;;60.17;;
44987;SDS011;35735;52.226;21.254;2024-03-07T20:38:53;122.35;;;55.38;;
44987;SDS011;35735;52.226;21.254;2024-03-07T20:44:14;142.70;;;64.63;;
44987;SDS011;35735;52.226;21.254;2024-03-07T20:49:35;162.32;;;74.05;;
44987;SDS011;35735;52.226;21.254;2024-03-07T20:54:56;193.80;;;88.57;;
44987;SDS011;35735;52.226;21.254;2024-03-07T21:00:20;180.50;;;83.33;;
44987;SDS011;35735;52.226;21.254;2024-03-07T21:05:43;179.70;;;78.70;;
44987;SDS011;35735;52.226;21.254;2024-03-07T21:11:03;153.73;;;74.97;;
44987;SDS011;35735;52.226;21.254;2024-03-07T21:16:24;160.85;;;75.85;;
44987;SDS011;35735;52.226;21.254;2024-03-07T21:21:45;147.47;;;71.13;;
44987;SDS011;35735;52.226;21.254;2024-03-07T21:27:06;157.95;;;78.32;;
44987;SDS011;35735;52.226;21.254;2024-03-07T21:32:27;166.88;;;84.75;;
44987;SDS011;35735;52.226;21.254;2024-03-07T21:37:48;156.70;;;82.75;;
44987;SDS011;35735;52.226;21.254;2024-03-07T21:43:09;177.98;;;89.72;;
44987;SDS011;35735;52.226;21.254;2024-03-07T21:48:30;180.95;;;88.47;;
44987;SDS011;35735;52.226;21.254;2024-03-07T21:53:51;177.73;;;88.68;;
44987;SDS011;35735;52.226;21.254;2024-03-07T21:59:12;171.98;;;87.15;;
44987;SDS011;35735;52.226;21.254;2024-03-07T22:04:33;178.40;;;88.28;;
44987;SDS011;35735;52.226;21.254;2024-03-07T22:09:54;173.73;;;84.40;;
44987;SDS011;35735;52.226;21.254;2024-03-07T22:15:15;162.83;;;84.10;;
44987;SDS011;35735;52.226;21.254;2024-03-07T22:20:35;167.60;;;83.78;;
44987;SDS011;35735;52.226;21.254;2024-03-07T22:25:56;161.70;;;83.37;;
44987;SDS011;35735;52.226;21.254;2024-03-07T22:31:17;159.83;;;79.87;;
44987;SDS011;35735;52.226;21.254;2024-03-07T22:36:47;159.27;;;79.63;;
44987;SDS011;35735;52.226;21.254;2024-03-07T22:42:08;143.50;;;72.68;;
44987;SDS011;35735;52.226;21.254;2024-03-07T22:47:29;141.02;;;71.03;;
44987;SDS011;35735;52.226;21.254;2024-03-07T22:52:50;156.93;;;77.10;;
44987;SDS011;35735;52.226;21.254;2024-03-07T22:58:11;172.52;;;83.30;;
44987;SDS011;35735;52.226;21.254;2024-03-07T23:03:32;188.77;;;90.35;;
44987;SDS011;35735;52.226;21.254;2024-03-07T23:08:53;178.73;;;87.33;;
44987;SDS011;35735;52.226;21.254;2024-03-07T23:14:14;207.25;;;96.30;;
44987;SDS011;35735;52.226;21.254;2024-03-07T23:19:34;220.48;;;103.38;;
44987;SDS011;35735;52.226;21.254;2024-03-07T23:24:55;244.50;;;109.72;;
44987;SDS011;35735;52.226;21.254;2024-03-07T23:30:16;243.10;;;108.70;;
44987;SDS011;35735;52.226;21.254;2024-03-07T23:35:37;233.82;;;110.32;;
44987;SDS011;35735;52.226;21.254;2024-03-07T23:40:58;225.75;;;105.68;;
44987;SDS011;35735;52.226;21.254;2024-03-07T23:46:19;239.40;;;111.03;;
44987;SDS011;35735;52.226;21.254;2024-03-07T23:51:46;225.70;;;105.90;;
44987;SDS011;35735;52.226;21.254;2024-03-07T23:57:07;233.30;;;106.57;;
